createdAt,value
2018-12-19T00:01:18.137Z,7.90
2018-12-19T00:03:46.641Z,8.60
2018-12-19T00:06:15.119Z,11.13
2018-12-19T00:08:43.659Z,7.37
2018-12-19T00:11:12.182Z,8.50
2018-12-19T00:13:40.659Z,7.20
2018-12-19T00:16:09.339Z,6.67
2018-12-19T00:18:38.235Z,6.53
2018-12-19T00:21:07.255Z,6.50
2018-12-19T00:23:35.853Z,7.30
2018-12-19T00:26:05.203Z,6.57
2018-12-19T00:28:33.693Z,7.03
2018-12-19T00:31:03.295Z,7.30
2018-12-19T00:33:32.189Z,7.83
2018-12-19T00:36:00.670Z,7.20
2018-12-19T00:38:29.155Z,10.10
2018-12-19T00:40:57.640Z,7.47
2018-12-19T00:43:26.110Z,8.13
2018-12-19T00:45:54.637Z,7.73
2018-12-19T00:48:23.106Z,8.67
2018-12-19T00:50:51.583Z,6.07
2018-12-19T00:53:20.139Z,7.67
2018-12-19T00:55:48.624Z,9.17
2018-12-19T00:58:17.144Z,6.83
2018-12-19T01:00:45.639Z,10.40
2018-12-19T01:03:14.682Z,8.63
2018-12-19T01:05:43.215Z,8.00
2018-12-19T01:08:11.707Z,6.87
2018-12-19T01:10:40.203Z,5.10
2018-12-19T01:13:08.698Z,7.70
2018-12-19T01:15:37.219Z,9.20
2018-12-19T01:18:06.075Z,6.87
2018-12-19T01:20:34.619Z,6.83
2018-12-19T01:23:04.494Z,5.60
2018-12-19T01:25:32.979Z,6.10
2018-12-19T01:28:03.712Z,6.73
2018-12-19T01:30:32.182Z,8.77
2018-12-19T01:33:00.654Z,7.53
2018-12-19T01:35:29.152Z,7.70
2018-12-19T01:37:57.736Z,7.40
2018-12-19T01:40:26.400Z,9.60
2018-12-19T01:42:54.887Z,6.17
2018-12-19T01:45:23.358Z,5.47
2018-12-19T01:47:52.110Z,6.77
2018-12-19T01:50:20.579Z,6.23
2018-12-19T01:52:49.042Z,6.20
2018-12-19T01:55:17.516Z,5.50
2018-12-19T01:57:46.015Z,7.60
2018-12-19T02:00:14.703Z,6.50
2018-12-19T02:02:43.165Z,6.47
2018-12-19T02:05:11.660Z,7.40
2018-12-19T02:07:40.297Z,6.50
2018-12-19T02:10:08.831Z,8.13
2018-12-19T02:12:38.914Z,6.87
2018-12-19T02:15:07.616Z,6.87
2018-12-19T02:17:37.868Z,6.27
2018-12-19T02:20:06.677Z,7.63
2018-12-19T02:22:35.260Z,6.37
2018-12-19T02:25:05.303Z,5.67
2018-12-19T02:27:33.769Z,10.57
2018-12-19T02:30:05.348Z,6.30
2018-12-19T02:32:33.870Z,5.87
2018-12-19T02:35:05.913Z,5.80
2018-12-19T02:37:34.410Z,5.63
2018-12-19T02:40:06.176Z,4.60
2018-12-19T02:42:34.733Z,7.07
2018-12-19T02:45:04.606Z,5.13
2018-12-19T02:47:33.427Z,5.13
2018-12-19T02:50:03.515Z,5.37
2018-12-19T02:52:31.998Z,5.37
2018-12-19T02:55:00.501Z,6.07
2018-12-19T02:57:29.061Z,4.30
2018-12-19T02:59:57.544Z,7.63
2018-12-19T03:02:26.314Z,5.20
2018-12-19T03:04:54.899Z,7.37
2018-12-19T03:07:23.413Z,5.57
2018-12-19T03:09:52.046Z,6.50
2018-12-19T03:12:20.525Z,6.17
2018-12-19T03:14:49.031Z,6.90
2018-12-19T03:17:17.484Z,5.17
2018-12-19T03:19:46.001Z,4.60
2018-12-19T03:22:14.477Z,6.43
2018-12-19T03:24:42.989Z,4.40
2018-12-19T03:27:11.474Z,4.57
2018-12-19T03:29:39.965Z,4.10
2018-12-19T03:32:08.920Z,9.67
2018-12-19T03:34:37.423Z,6.17
2018-12-19T03:37:05.961Z,6.23
2018-12-19T03:39:34.445Z,5.23
2018-12-19T03:42:04.999Z,5.73
2018-12-19T03:44:33.846Z,5.27
2018-12-19T03:47:04.130Z,5.77
2018-12-19T03:49:32.939Z,5.47
2018-12-19T03:52:03.395Z,4.93
2018-12-19T03:54:32.019Z,6.03
2018-12-19T03:57:00.815Z,6.90
2018-12-19T03:59:30.131Z,5.17
2018-12-19T04:01:58.595Z,7.13
2018-12-19T04:04:27.345Z,4.47
2018-12-19T04:06:56.242Z,7.53
2018-12-19T04:09:24.720Z,5.43
2018-12-19T04:11:53.198Z,5.43
2018-12-19T04:14:21.678Z,4.83
2018-12-19T04:16:50.154Z,6.43
2018-12-19T04:19:18.617Z,6.37
2018-12-19T04:21:47.119Z,4.67
2018-12-19T04:24:15.619Z,5.83
2018-12-19T04:26:44.327Z,5.97
2018-12-19T04:29:12.848Z,6.10
2018-12-19T04:31:41.482Z,4.90
2018-12-19T04:34:10.395Z,5.77
2018-12-19T04:36:38.865Z,5.73
2018-12-19T04:39:07.675Z,7.30
2018-12-19T04:41:36.149Z,5.27
2018-12-19T04:44:05.617Z,6.47
2018-12-19T04:46:34.171Z,4.93
2018-12-19T04:49:03.838Z,7.83
2018-12-19T04:51:32.305Z,7.13
2018-12-19T04:54:00.807Z,5.40
2018-12-19T04:56:29.287Z,6.03
2018-12-19T04:58:57.746Z,7.97
2018-12-19T05:01:26.476Z,6.07
2018-12-19T05:03:54.957Z,5.70
2018-12-19T05:06:23.426Z,6.30
2018-12-19T05:08:52.878Z,5.80
2018-12-19T05:11:21.364Z,7.30
2018-12-19T05:13:49.858Z,4.83
2018-12-19T05:16:18.706Z,6.00
2018-12-19T05:18:47.214Z,8.10
2018-12-19T05:21:15.730Z,6.80
2018-12-19T05:23:44.282Z,6.40
2018-12-19T05:26:12.851Z,6.27
2018-12-19T05:28:42.043Z,9.63
2018-12-19T05:31:10.665Z,5.67
2018-12-19T05:33:39.237Z,6.80
2018-12-19T05:36:07.994Z,8.03
2018-12-19T05:38:36.483Z,7.40
2018-12-19T05:41:05.391Z,9.10
2018-12-19T05:43:34.188Z,12.27
2018-12-19T05:46:04.507Z,7.30
2018-12-19T05:48:32.958Z,6.90
2018-12-19T05:51:02.515Z,6.90
2018-12-19T05:53:30.987Z,5.80
2018-12-19T05:55:59.672Z,7.73
2018-12-19T05:58:28.152Z,8.33
2018-12-19T06:00:56.642Z,7.17
2018-12-19T06:03:25.121Z,7.80
2018-12-19T06:05:53.867Z,9.60
2018-12-19T06:08:22.425Z,7.07
2018-12-19T06:10:51.251Z,7.93
2018-12-19T06:13:19.838Z,6.60
2018-12-19T06:15:48.303Z,8.43
2018-12-19T06:18:20.263Z,9.37
2018-12-19T06:20:48.741Z,6.60
2018-12-19T06:23:17.331Z,8.43
2018-12-19T06:25:45.915Z,6.93
2018-12-19T06:28:14.618Z,9.47
2018-12-19T06:30:43.260Z,7.53
2018-12-19T06:33:12.001Z,8.50
2018-12-19T06:35:40.510Z,7.33
2018-12-19T06:38:08.983Z,11.90
2018-12-19T06:40:37.545Z,9.10
2018-12-19T06:43:06.288Z,8.37
2018-12-19T06:45:34.871Z,12.07
2018-12-19T06:48:04.962Z,9.83
2018-12-19T06:50:33.461Z,10.83
2018-12-19T06:53:04.264Z,9.90
2018-12-19T06:55:50.621Z,9.77
2018-12-19T06:58:19.474Z,9.20
2018-12-19T07:00:47.959Z,11.87
2018-12-19T07:03:16.455Z,11.97
2018-12-19T07:05:45.236Z,12.57
2018-12-19T07:08:13.773Z,10.10
2018-12-19T07:10:42.309Z,13.37
2018-12-19T07:13:10.874Z,11.37
2018-12-19T07:15:40.289Z,13.70
2018-12-19T07:18:08.839Z,10.83
2018-12-19T07:20:44.932Z,10.90
2018-12-19T07:23:15.004Z,11.20
2018-12-19T07:25:44.546Z,11.80
2018-12-19T07:28:13.306Z,11.57
2018-12-19T07:30:42.567Z,13.00
2018-12-19T07:33:11.174Z,12.67
2018-12-19T07:35:39.898Z,16.13
2018-12-19T07:38:08.481Z,12.83
2018-12-19T07:40:37.714Z,12.37
2018-12-19T07:43:06.252Z,11.90
2018-12-19T07:45:35.693Z,14.27
2018-12-19T07:48:05.231Z,13.63
2018-12-19T07:50:35.345Z,14.80
2018-12-19T07:53:05.952Z,13.50
2018-12-19T07:55:37.468Z,16.10
2018-12-19T07:58:08.450Z,13.03
2018-12-19T08:00:41.385Z,14.30
2018-12-19T08:03:10.373Z,13.63
2018-12-19T08:05:39.379Z,13.80
2018-12-19T08:08:35.816Z,13.00
2018-12-19T08:11:06.883Z,13.97
2018-12-19T08:13:35.524Z,13.83
2018-12-19T08:16:05.452Z,17.37
2018-12-19T08:18:34.008Z,15.73
2018-12-19T08:21:05.210Z,14.60
2018-12-19T08:23:35.464Z,16.73
2018-12-19T08:26:12.747Z,14.80
2018-12-19T08:29:09.859Z,17.10
2018-12-19T08:31:40.275Z,15.70
2018-12-19T08:39:54.276Z,14.03
2018-12-19T08:42:22.759Z,14.47
2018-12-19T08:44:51.498Z,15.97
2018-12-19T08:47:20.480Z,14.33
2018-12-19T08:49:48.961Z,15.03
2018-12-19T08:52:17.452Z,19.03
2018-12-19T08:54:46.247Z,15.30
2018-12-19T08:57:14.727Z,16.60
2018-12-19T08:59:43.224Z,16.27
2018-12-19T09:02:12.102Z,16.00
2018-12-19T09:04:40.645Z,17.73
2018-12-19T09:07:09.507Z,16.07
2018-12-19T09:09:38.011Z,15.33
2018-12-19T09:12:06.590Z,15.70
2018-12-19T09:14:35.223Z,16.63
2018-12-19T09:17:07.784Z,16.50
2018-12-19T09:19:36.613Z,18.07
2018-12-19T09:22:05.896Z,18.67
2018-12-19T09:24:34.408Z,17.27
2018-12-19T09:27:04.519Z,16.90
2018-12-19T09:29:32.998Z,17.43
2018-12-19T09:32:02.695Z,18.07
2018-12-19T09:34:31.214Z,16.17
2018-12-19T09:36:59.706Z,15.90
2018-12-19T09:39:28.209Z,17.00
2018-12-19T09:41:56.694Z,16.57
2018-12-19T09:44:25.173Z,17.00
2018-12-19T09:46:53.664Z,15.30
2018-12-19T09:49:22.155Z,17.97
2018-12-19T09:51:50.626Z,16.37
2018-12-19T09:54:19.132Z,15.40
2018-12-19T09:56:47.648Z,16.83
2018-12-19T09:59:16.197Z,15.73
2018-12-19T10:01:44.688Z,16.23
2018-12-19T10:04:13.167Z,18.47
2018-12-19T10:06:41.665Z,16.00
2018-12-19T10:09:14.738Z,14.33
2018-12-19T10:11:40.728Z,15.97
2018-12-19T10:14:09.292Z,19.63
2018-12-19T10:16:37.760Z,17.17
2018-12-19T10:19:06.247Z,17.60
2018-12-19T10:21:34.787Z,15.73
2018-12-19T10:24:04.483Z,16.50
2018-12-19T10:26:32.945Z,15.40
2018-12-19T10:29:02.898Z,15.97
2018-12-19T10:31:31.398Z,15.60
2018-12-19T10:33:59.870Z,14.83
2018-12-19T10:36:33.644Z,15.40
2018-12-19T10:39:03.794Z,14.53
2018-12-19T10:41:32.825Z,15.40
2018-12-19T10:44:02.742Z,16.00
2018-12-19T10:46:31.198Z,16.70
2018-12-19T10:48:59.714Z,14.97
2018-12-19T10:51:29.145Z,16.67
2018-12-19T10:53:57.622Z,14.30
2018-12-19T10:56:26.107Z,15.83
2018-12-19T10:58:54.572Z,13.97
2018-12-19T11:01:23.060Z,15.53
2018-12-19T11:03:51.615Z,14.37
2018-12-19T11:06:20.108Z,13.57
2018-12-19T11:08:48.774Z,13.90
2018-12-19T11:11:17.370Z,13.30
2018-12-19T11:13:46.041Z,14.03
2018-12-19T11:16:14.572Z,13.93
2018-12-19T11:18:43.081Z,11.53
2018-12-19T11:21:12.581Z,12.60
2018-12-19T11:23:41.340Z,10.90
2018-12-19T11:26:10.053Z,10.30
2018-12-19T11:28:38.522Z,13.70
2018-12-19T11:31:07.025Z,12.20
2018-12-19T11:33:35.629Z,9.40
2018-12-19T11:36:05.537Z,10.77
2018-12-19T11:38:34.283Z,9.97
2018-12-19T11:41:04.632Z,10.63
2018-12-19T11:43:33.138Z,12.30
2018-12-19T11:46:02.977Z,9.67
2018-12-19T11:48:31.450Z,13.50
2018-12-19T11:51:00.163Z,9.90
2018-12-19T11:53:28.714Z,8.97
2018-12-19T11:55:57.258Z,9.63
2018-12-19T11:58:25.975Z,7.97
2018-12-19T12:00:54.605Z,9.43
2018-12-19T12:03:23.111Z,9.17
2018-12-19T12:05:51.671Z,7.93
2018-12-19T12:08:20.540Z,8.07
2018-12-19T12:10:48.993Z,7.23
2018-12-19T12:13:17.467Z,7.33
2018-12-19T12:15:46.160Z,8.47
2018-12-19T12:18:14.703Z,8.80
2018-12-19T12:20:43.158Z,8.20
2018-12-19T12:23:11.660Z,10.27
2018-12-19T12:25:40.280Z,8.57
2018-12-19T12:28:09.076Z,11.70
2018-12-19T12:30:37.605Z,8.73
2018-12-19T12:33:06.234Z,10.73
2018-12-19T12:35:34.722Z,12.50
2018-12-19T12:38:05.432Z,9.33
2018-12-19T12:40:34.380Z,13.63
2018-12-19T12:43:05.439Z,8.90
2018-12-19T12:45:33.991Z,9.93
2018-12-19T12:48:03.994Z,9.67
2018-12-19T12:50:32.608Z,7.70
2018-12-19T12:53:04.539Z,7.83
2018-12-19T12:55:33.461Z,9.30
2018-12-19T12:58:03.853Z,9.90
2018-12-19T13:00:32.451Z,10.50
2018-12-19T13:03:00.947Z,10.23
2018-12-19T13:05:29.485Z,6.97
2018-12-19T13:07:57.959Z,12.23
2018-12-19T13:10:26.455Z,8.50
2018-12-19T13:12:54.950Z,8.87
2018-12-19T13:15:28.484Z,10.77
2018-12-19T13:17:57.459Z,13.57
2018-12-19T13:20:26.729Z,7.13
2018-12-19T13:22:55.222Z,7.43
2018-12-19T13:25:23.719Z,10.73
2018-12-19T13:27:52.402Z,10.03
2018-12-19T13:30:20.891Z,8.77
2018-12-19T13:32:49.476Z,6.23
2018-12-19T13:35:18.068Z,8.43
2018-12-19T13:37:46.579Z,9.17
2018-12-19T13:40:15.058Z,9.60
2018-12-19T13:42:43.621Z,10.20
2018-12-19T13:45:12.239Z,7.83
2018-12-19T13:47:40.714Z,7.93
2018-12-19T13:50:09.465Z,8.23
2018-12-19T13:52:38.538Z,8.70
2018-12-19T13:55:07.307Z,10.60
2018-12-19T13:57:35.860Z,9.10
2018-12-19T14:00:07.806Z,6.47
2018-12-19T14:02:36.483Z,7.03
2018-12-19T14:05:05.310Z,6.50
2018-12-19T14:07:33.760Z,6.93
2018-12-19T14:10:03.752Z,8.23
2018-12-19T14:12:32.246Z,5.23
2018-12-19T14:15:00.708Z,11.80
2018-12-19T14:17:29.201Z,8.67
2018-12-19T14:19:58.031Z,9.77
2018-12-19T14:22:26.534Z,12.37
2018-12-19T14:24:55.054Z,9.80
2018-12-19T14:27:23.545Z,8.33
2018-12-19T14:29:52.028Z,8.50
2018-12-19T14:32:20.537Z,9.07
2018-12-19T14:34:49.148Z,7.00
2018-12-19T14:37:17.654Z,9.10
2018-12-19T14:39:46.426Z,9.37
2018-12-19T14:42:19.066Z,8.63
2018-12-19T14:44:45.660Z,10.67
2018-12-19T14:47:14.145Z,10.73
2018-12-19T14:49:42.610Z,7.57
2018-12-19T14:52:11.123Z,9.13
2018-12-19T14:54:43.122Z,6.90
2018-12-19T14:57:11.627Z,7.87
2018-12-19T14:59:40.103Z,7.03
2018-12-19T15:02:08.582Z,7.47
2018-12-19T15:04:37.117Z,10.63
2018-12-19T15:07:05.614Z,13.43
2018-12-19T15:09:34.134Z,9.23
2018-12-19T15:12:05.298Z,9.13
2018-12-19T15:14:33.806Z,13.57
2018-12-19T15:17:04.143Z,8.37
2018-12-19T15:19:32.908Z,7.57
2018-12-19T15:22:02.785Z,7.70
2018-12-19T15:24:31.300Z,10.10
2018-12-19T15:26:59.798Z,8.90
2018-12-19T15:29:28.279Z,9.73
2018-12-19T15:31:56.803Z,8.87
2018-12-19T15:34:25.299Z,16.33
2018-12-19T15:36:53.788Z,9.90
2018-12-19T15:39:22.377Z,10.47
2018-12-19T15:41:51.043Z,10.70
2018-12-19T15:44:19.508Z,10.43
2018-12-19T15:46:48.278Z,10.27
2018-12-19T15:49:16.879Z,10.13
2018-12-19T15:51:45.417Z,7.67
2018-12-19T15:54:13.924Z,8.43
2018-12-19T15:56:42.684Z,9.53
2018-12-19T15:59:11.214Z,10.13
2018-12-19T16:01:39.726Z,8.23
2018-12-19T16:04:08.206Z,12.27
2018-12-19T16:06:36.715Z,8.50
2018-12-19T16:09:06.865Z,8.27
2018-12-19T16:11:35.375Z,8.63
2018-12-19T16:14:05.306Z,10.97
2018-12-19T16:16:33.850Z,10.60
2018-12-19T16:19:03.866Z,7.83
2018-12-19T16:21:32.349Z,10.67
2018-12-19T16:24:00.846Z,8.67
2018-12-19T16:26:29.348Z,9.07
2018-12-19T16:28:58.119Z,7.57
2018-12-19T16:31:26.599Z,8.73
2018-12-19T16:33:55.137Z,9.57
2018-12-19T16:36:23.664Z,11.13
2018-12-19T16:38:52.275Z,14.07
2018-12-19T16:41:20.845Z,10.70
2018-12-19T16:43:49.417Z,14.73
2018-12-19T16:46:17.905Z,9.37
2018-12-19T16:48:46.409Z,9.07
2018-12-19T16:51:16.654Z,8.93
2018-12-19T16:53:45.267Z,12.40
2018-12-19T16:56:14.191Z,11.23
2018-12-19T16:58:42.707Z,11.30
2018-12-19T17:01:11.259Z,9.67
2018-12-19T17:03:39.745Z,10.27
2018-12-19T17:06:08.445Z,12.43
2018-12-19T17:08:37.462Z,12.77
2018-12-19T17:11:05.939Z,10.33
2018-12-19T17:13:34.656Z,11.07
2018-12-19T17:16:04.920Z,9.73
2018-12-19T17:18:33.404Z,11.53
2018-12-19T17:21:06.128Z,11.70
2018-12-19T17:23:34.681Z,10.43
2018-12-19T17:26:06.205Z,12.50
2018-12-19T17:28:34.859Z,9.80
2018-12-19T17:31:07.194Z,10.97
2018-12-19T17:33:35.725Z,11.73
2018-12-19T17:36:06.021Z,10.83
2018-12-19T17:38:34.511Z,8.93
2018-12-19T17:41:04.813Z,11.53
2018-12-19T17:43:33.293Z,12.33
2018-12-19T17:46:03.177Z,11.13
2018-12-19T17:48:31.725Z,9.17
2018-12-19T17:51:00.316Z,11.17
2018-12-19T17:53:28.796Z,7.30
2018-12-19T17:55:57.387Z,10.50
2018-12-19T17:58:25.882Z,10.50
2018-12-19T18:00:54.487Z,10.30
2018-12-19T18:03:22.983Z,9.80
2018-12-19T18:05:51.461Z,10.80
2018-12-19T18:08:19.923Z,8.90
2018-12-19T18:10:48.617Z,9.67
2018-12-19T18:13:17.130Z,11.10
2018-12-19T18:15:45.647Z,7.60
2018-12-19T18:18:14.188Z,9.27
2018-12-19T18:20:42.993Z,8.47
2018-12-19T18:23:11.504Z,8.53
2018-12-19T18:25:40.069Z,8.87
2018-12-19T18:28:08.686Z,7.23
2018-12-19T18:30:37.460Z,10.37
2018-12-19T18:33:06.283Z,9.93
2018-12-19T18:35:34.910Z,10.93
2018-12-19T18:38:05.439Z,11.67
2018-12-19T18:40:34.008Z,9.13
2018-12-19T18:43:03.760Z,13.27
2018-12-19T18:45:32.291Z,9.73
2018-12-19T18:48:00.937Z,11.43
2018-12-19T18:50:29.809Z,9.40
2018-12-19T18:52:58.473Z,9.10
2018-12-19T18:55:27.153Z,7.37
2018-12-19T18:57:56.179Z,12.63
2018-12-19T19:00:34.827Z,11.97
2018-12-19T19:03:05.137Z,8.90
2018-12-19T19:05:33.689Z,10.73
2018-12-19T19:08:04.922Z,10.73
2018-12-19T19:10:33.472Z,12.03
2018-12-19T19:13:03.754Z,11.00
2018-12-19T19:15:32.746Z,9.67
2018-12-19T19:18:03.894Z,10.00
2018-12-19T19:20:33.389Z,10.87
2018-12-19T19:23:02.856Z,7.77
2018-12-19T19:25:31.528Z,8.67
2018-12-19T19:28:00.831Z,11.13
2018-12-19T19:30:29.389Z,7.63
2018-12-19T19:32:58.574Z,6.93
2018-12-19T19:35:27.152Z,10.87
2018-12-19T19:37:55.750Z,11.37
2018-12-19T19:40:24.339Z,9.87
2018-12-19T19:42:52.954Z,10.27
2018-12-19T19:45:21.593Z,8.20
2018-12-19T19:47:50.216Z,9.30
2018-12-19T19:50:18.980Z,10.37
2018-12-19T19:52:48.034Z,9.50
2018-12-19T19:55:16.821Z,8.50
2018-12-19T19:57:45.913Z,10.57
2018-12-19T20:00:16.817Z,8.83
2018-12-19T20:02:45.539Z,12.73
2018-12-19T20:05:14.457Z,14.73
2018-12-19T20:07:43.962Z,12.43
2018-12-19T20:10:12.992Z,10.10
2018-12-19T20:12:42.043Z,12.07
2018-12-19T20:15:10.672Z,11.33
2018-12-19T20:17:40.400Z,10.70
2018-12-19T20:20:10.307Z,12.77
2018-12-19T20:22:39.136Z,10.07
2018-12-19T20:25:07.894Z,11.87
2018-12-19T20:27:36.642Z,11.23
2018-12-19T20:30:10.419Z,8.23
2018-12-19T20:32:39.076Z,10.43
2018-12-19T20:35:07.869Z,13.00
2018-12-19T20:37:37.296Z,11.27
2018-12-19T20:40:06.249Z,11.00
2018-12-19T20:42:36.502Z,13.27
2018-12-19T20:45:05.948Z,12.77
2018-12-19T20:47:34.816Z,11.70
2018-12-19T20:50:04.469Z,11.33
2018-12-19T20:52:33.061Z,12.37
2018-12-19T20:55:03.329Z,10.77
2018-12-19T20:57:32.162Z,11.90
2018-12-19T21:00:00.760Z,11.63
2018-12-19T21:02:29.387Z,11.53
2018-12-19T21:04:58.073Z,9.90
2018-12-19T21:07:26.727Z,10.93
2018-12-19T21:09:55.306Z,15.97
2018-12-19T21:12:23.969Z,16.13
2018-12-19T21:14:53.187Z,15.80
2018-12-19T21:17:26.944Z,18.10
2018-12-19T21:19:55.725Z,18.50
2018-12-19T21:22:24.413Z,14.60
2018-12-19T21:24:52.969Z,16.47
2018-12-19T21:27:22.522Z,17.47
2018-12-19T21:29:51.338Z,15.57
2018-12-19T21:32:20.092Z,17.67
2018-12-19T21:34:48.701Z,22.00
2018-12-19T21:37:17.624Z,23.77
2018-12-19T21:39:46.172Z,19.90
2018-12-19T21:42:14.754Z,27.37
2018-12-19T21:44:43.471Z,26.73
2018-12-19T21:47:12.116Z,26.47
2018-12-19T21:49:40.700Z,21.47
2018-12-19T21:52:09.265Z,22.40
2018-12-19T21:54:38.188Z,31.50
2018-12-19T21:57:06.834Z,21.60
2018-12-19T21:59:35.715Z,22.80
2018-12-19T22:02:05.791Z,19.93
2018-12-19T22:04:34.377Z,22.07
2018-12-19T22:07:04.945Z,22.87
2018-12-19T22:09:33.492Z,21.00
2018-12-19T22:12:03.227Z,20.37
2018-12-19T22:14:31.749Z,19.73
2018-12-19T22:17:05.616Z,22.53
2018-12-19T22:19:34.136Z,22.87
2018-12-19T22:22:03.590Z,25.00
2018-12-19T22:24:32.300Z,25.73
2018-12-19T22:27:00.783Z,24.17
2018-12-19T22:29:29.698Z,23.63
2018-12-19T22:31:58.648Z,26.20
2018-12-19T22:34:27.206Z,24.53
2018-12-19T22:36:55.795Z,24.87
2018-12-19T22:39:24.332Z,27.43
2018-12-19T22:41:53.042Z,21.63
2018-12-19T22:44:21.728Z,22.27
2018-12-19T22:46:55.996Z,28.53
2018-12-19T22:49:24.579Z,21.93
2018-12-19T22:51:53.084Z,26.23
2018-12-19T22:54:21.813Z,22.77
2018-12-19T22:56:50.489Z,22.97
2018-12-19T22:59:19.160Z,21.93
2018-12-19T23:02:54.420Z,23.67
2018-12-19T23:05:28.230Z,21.63
2018-12-19T23:07:56.796Z,24.33
2018-12-19T23:10:25.489Z,19.80
2018-12-19T23:12:54.087Z,22.70
2018-12-19T23:15:24.620Z,20.33
2018-12-19T23:17:55.559Z,25.03
2018-12-19T23:20:24.168Z,22.33
2018-12-19T23:22:52.733Z,21.50
2018-12-19T23:25:21.288Z,24.73
2018-12-19T23:27:49.794Z,21.57
2018-12-19T23:30:18.280Z,20.57
2018-12-19T23:32:47.012Z,20.77
2018-12-19T23:35:15.561Z,23.07
2018-12-19T23:37:44.066Z,21.37
2018-12-19T23:40:12.674Z,22.07
2018-12-19T23:42:41.330Z,22.60
2018-12-19T23:45:10.198Z,21.00
2018-12-19T23:47:38.772Z,20.90
2018-12-19T23:50:07.442Z,20.87
2018-12-19T23:52:36.555Z,19.07
2018-12-19T23:55:06.767Z,21.53
2018-12-19T23:57:35.401Z,18.03
